Hengist.it
  Home
 Volo reale
   Pilot Logbook
   Private Pilot Licence
   I miei aerei
   Scuola volo FlySabaudia
   Aeroporto dell'Urbe
   Galleria fotografica
   Galleria video
 Volo virtuale
   Ivao
   Flight Simulator
   Air Traffic Control
   VFR Tour 2007
   VFR World Tour 2008
 
 Servizi
   Meteo & Notam
   Airports & Navaids
   Effemeridi
   Forum A.O.P.A.
   Pagina degli ospiti
   Contatti
   Links
 
 Altri Hobbies
   A.S. Roma
   Home Cinema
   X-Box 360 / PC
 
 
   VFR Tour 2007

Il piano di volo




>>>> Il tragitto sulla mappa <<<<


Dopo un'altra breve vacanza,questa volta nella bellissima Bari... si parte per un bel giro della Puglia ad alta quota!

LIBD 011850Z VRB03KT 9999 SCT030 24/14 Q1014

Condizioni meteo buone!



rullo in direzione della pista 25 dell'aeroporto di Bari




il decollo avvenuto mezz'ora prima del tramonto, forse un po' troppo tardi...




2 nm a ovest di Brindisi...




dopo Lecce salgo di quota, ed a 5000 piedi attraverso un bel banco di nubi...




poco dopo Nard, a 7000 piedi... mi godo un tramonto spettacolare




non dovrei...ma la tentazione davvero troppo forte, per cui decido di giocare un po' tra le nuvole tinte di rosa...




prossimo a Gallipoli, 8000 piedi...lo spettacolo davvero straordinario!




campo in "vista", arrivo a Grottaglie un po' fuori tempo massimo...



<<< Indietro


 
 

2000-2007 Hengist.it - Tutti i diritti riservati